sensor_id;sensor_type;location;lat;lon;timestamp;temperature;humidity
5868;DHT22;2960;49.142;7.768;2022-11-23T00:01:32;8.40;78.80
5868;DHT22;2960;49.142;7.768;2022-11-23T00:04:04;8.40;78.80
5868;DHT22;2960;49.142;7.768;2022-11-23T00:06:32;8.40;78.80
5868;DHT22;2960;49.142;7.768;2022-11-23T00:09:00;8.40;78.80
5868;DHT22;2960;49.142;7.768;2022-11-23T00:11:28;8.40;78.80
5868;DHT22;2960;49.142;7.768;2022-11-23T00:13:56;8.40;78.80
5868;DHT22;2960;49.142;7.768;2022-11-23T00:16:24;8.40;78.80
5868;DHT22;2960;49.142;7.768;2022-11-23T00:18:53;8.60;79.00
5868;DHT22;2960;49.142;7.768;2022-11-23T00:21:21;8.40;78.80
5868;DHT22;2960;49.142;7.768;2022-11-23T00:23:48;8.50;78.90
5868;DHT22;2960;49.142;7.768;2022-11-23T00:26:17;8.50;78.90
5868;DHT22;2960;49.142;7.768;2022-11-23T00:28:45;8.40;78.90
5868;DHT22;2960;49.142;7.768;2022-11-23T00:31:17;8.40;78.90
5868;DHT22;2960;49.142;7.768;2022-11-23T00:33:47;8.40;79.00
5868;DHT22;2960;49.142;7.768;2022-11-23T00:36:16;8.40;79.00
5868;DHT22;2960;49.142;7.768;2022-11-23T00:38:43;8.40;78.90
5868;DHT22;2960;49.142;7.768;2022-11-23T00:41:12;8.50;78.90
5868;DHT22;2960;49.142;7.768;2022-11-23T00:43:40;8.50;78.90
5868;DHT22;2960;49.142;7.768;2022-11-23T00:46:12;8.50;78.90
5868;DHT22;2960;49.142;7.768;2022-11-23T00:48:40;8.40;78.80
5868;DHT22;2960;49.142;7.768;2022-11-23T00:51:10;8.40;78.80
5868;DHT22;2960;49.142;7.768;2022-11-23T00:53:38;8.50;79.00
5868;DHT22;2960;49.142;7.768;2022-11-23T00:56:06;8.50;79.00
5868;DHT22;2960;49.142;7.768;2022-11-23T00:58:34;8.50;79.00
5868;DHT22;2960;49.142;7.768;2022-11-23T01:01:05;8.50;79.00
5868;DHT22;2960;49.142;7.768;2022-11-23T01:03:40;8.50;79.00
5868;DHT22;2960;49.142;7.768;2022-11-23T01:06:10;8.50;79.00
5868;DHT22;2960;49.142;7.768;2022-11-23T01:08:38;8.50;79.00
5868;DHT22;2960;49.142;7.768;2022-11-23T01:11:07;8.50;78.90
5868;DHT22;2960;49.142;7.768;2022-11-23T01:13:37;8.50;79.00
5868;DHT22;2960;49.142;7.768;2022-11-23T01:16:08;8.60;79.10
5868;DHT22;2960;49.142;7.768;2022-11-23T01:18:40;8.60;79.20
5868;DHT22;2960;49.142;7.768;2022-11-23T01:21:08;8.60;79.20
5868;DHT22;2960;49.142;7.768;2022-11-23T01:23:39;8.60;79.10
5868;DHT22;2960;49.142;7.768;2022-11-23T01:26:08;8.60;79.10
5868;DHT22;2960;49.142;7.768;2022-11-23T01:28:37;8.60;79.10
5868;DHT22;2960;49.142;7.768;2022-11-23T01:31:09;8.60;79.20
5868;DHT22;2960;49.142;7.768;2022-11-23T01:33:39;8.60;79.10
5868;DHT22;2960;49.142;7.768;2022-11-23T01:36:10;8.60;79.10
5868;DHT22;2960;49.142;7.768;2022-11-23T01:38:38;8.60;79.10
5868;DHT22;2960;49.142;7.768;2022-11-23T01:41:05;8.60;79.10
5868;DHT22;2960;49.142;7.768;2022-11-23T01:43:33;8.60;79.00
5868;DHT22;2960;49.142;7.768;2022-11-23T01:46:00;8.60;79.00
5868;DHT22;2960;49.142;7.768;2022-11-23T01:48:32;8.60;79.00
5868;DHT22;2960;49.142;7.768;2022-11-23T01:51:04;8.60;79.10
5868;DHT22;2960;49.142;7.768;2022-11-23T01:53:33;8.60;79.10
5868;DHT22;2960;49.142;7.768;2022-11-23T01:56:02;8.70;79.20
5868;DHT22;2960;49.142;7.768;2022-11-23T01:58:33;8.70;79.10
5868;DHT22;2960;49.142;7.768;2022-11-23T02:01:03;8.70;79.10
5868;DHT22;2960;49.142;7.768;2022-11-23T02:03:32;8.70;79.00
5868;DHT22;2960;49.142;7.768;2022-11-23T02:06:04;8.70;79.00
5868;DHT22;2960;49.142;7.768;2022-11-23T02:08:34;8.60;78.90
5868;DHT22;2960;49.142;7.768;2022-11-23T02:11:02;8.60;79.00
5868;DHT22;2960;49.142;7.768;2022-11-23T02:13:29;8.70;79.10
5868;DHT22;2960;49.142;7.768;2022-11-23T02:15:57;8.70;79.10
5868;DHT22;2960;49.142;7.768;2022-11-23T02:18:25;8.70;79.10
5868;DHT22;2960;49.142;7.768;2022-11-23T02:20:56;8.70;79.10
5868;DHT22;2960;49.142;7.768;2022-11-23T02:23:32;8.70;79.10
5868;DHT22;2960;49.142;7.768;2022-11-23T02:26:04;8.70;79.10
5868;DHT22;2960;49.142;7.768;2022-11-23T02:28:35;8.70;79.30
5868;DHT22;2960;49.142;7.768;2022-11-23T02:31:04;8.80;79.10
5868;DHT22;2960;49.142;7.768;2022-11-23T02:33:31;8.70;78.90
5868;DHT22;2960;49.142;7.768;2022-11-23T02:35:59;8.70;78.80
5868;DHT22;2960;49.142;7.768;2022-11-23T02:38:30;8.70;79.60
5868;DHT22;2960;49.142;7.768;2022-11-23T02:40:57;8.70;79.50
5868;DHT22;2960;49.142;7.768;2022-11-23T02:43:26;8.70;78.70
5868;DHT22;2960;49.142;7.768;2022-11-23T02:45:55;8.70;79.50
5868;DHT22;2960;49.142;7.768;2022-11-23T02:48:27;8.70;78.70
5868;DHT22;2960;49.142;7.768;2022-11-23T02:50:54;8.70;78.70
5868;DHT22;2960;49.142;7.768;2022-11-23T02:53:22;8.80;78.80
5868;DHT22;2960;49.142;7.768;2022-11-23T02:55:49;8.80;78.70
5868;DHT22;2960;49.142;7.768;2022-11-23T02:58:16;8.80;78.70
5868;DHT22;2960;49.142;7.768;2022-11-23T03:00:45;8.80;78.70
5868;DHT22;2960;49.142;7.768;2022-11-23T03:03:12;8.80;78.60
5868;DHT22;2960;49.142;7.768;2022-11-23T03:05:39;8.80;78.60
5868;DHT22;2960;49.142;7.768;2022-11-23T03:08:06;8.80;78.50
5868;DHT22;2960;49.142;7.768;2022-11-23T03:10:34;8.80;78.50
5868;DHT22;2960;49.142;7.768;2022-11-23T03:13:01;8.80;78.40
5868;DHT22;2960;49.142;7.768;2022-11-23T03:15:28;8.90;78.50
5868;DHT22;2960;49.142;7.768;2022-11-23T03:17:57;8.80;78.40
5868;DHT22;2960;49.142;7.768;2022-11-23T03:20:24;8.90;78.60
5868;DHT22;2960;49.142;7.768;2022-11-23T03:22:51;8.90;78.50
5868;DHT22;2960;49.142;7.768;2022-11-23T03:25:18;8.90;78.50
5868;DHT22;2960;49.142;7.768;2022-11-23T03:27:45;8.90;78.50
5868;DHT22;2960;49.142;7.768;2022-11-23T03:30:14;8.90;78.40
5868;DHT22;2960;49.142;7.768;2022-11-23T03:32:41;8.90;78.40
5868;DHT22;2960;49.142;7.768;2022-11-23T03:35:09;8.90;78.30
5868;DHT22;2960;49.142;7.768;2022-11-23T03:37:36;8.90;78.40
5868;DHT22;2960;49.142;7.768;2022-11-23T03:40:04;8.90;78.30
5868;DHT22;2960;49.142;7.768;2022-11-23T03:42:32;8.90;78.30
5868;DHT22;2960;49.142;7.768;2022-11-23T03:44:59;8.90;78.20
5868;DHT22;2960;49.142;7.768;2022-11-23T03:47:26;8.90;78.20
5868;DHT22;2960;49.142;7.768;2022-11-23T03:49:53;8.90;78.30
5868;DHT22;2960;49.142;7.768;2022-11-23T03:52:21;8.90;78.30
5868;DHT22;2960;49.142;7.768;2022-11-23T03:54:48;8.90;78.30
5868;DHT22;2960;49.142;7.768;2022-11-23T03:57:15;8.90;78.40
5868;DHT22;2960;49.142;7.768;2022-11-23T03:59:42;8.90;78.30
5868;DHT22;2960;49.142;7.768;2022-11-23T04:02:09;8.90;78.20
5868;DHT22;2960;49.142;7.768;2022-11-23T04:04:36;8.90;78.20
5868;DHT22;2960;49.142;7.768;2022-11-23T04:07:03;8.90;79.00
5868;DHT22;2960;49.142;7.768;2022-11-23T04:09:35;8.90;78.10
5868;DHT22;2960;49.142;7.768;2022-11-23T04:12:02;8.90;78.00
5868;DHT22;2960;49.142;7.768;2022-11-23T04:14:30;8.80;78.10
5868;DHT22;2960;49.142;7.768;2022-11-23T04:16:59;8.80;78.10
5868;DHT22;2960;49.142;7.768;2022-11-23T04:19:26;8.80;78.10
5868;DHT22;2960;49.142;7.768;2022-11-23T04:21:53;8.80;78.80
5868;DHT22;2960;49.142;7.768;2022-11-23T04:24:21;8.80;78.80
5868;DHT22;2960;49.142;7.768;2022-11-23T04:26:49;8.80;77.90
5868;DHT22;2960;49.142;7.768;2022-11-23T04:29:18;8.80;78.00
5868;DHT22;2960;49.142;7.768;2022-11-23T04:31:45;8.90;78.00
5868;DHT22;2960;49.142;7.768;2022-11-23T04:34:13;8.90;78.00
5868;DHT22;2960;49.142;7.768;2022-11-23T04:36:40;8.80;77.80
5868;DHT22;2960;49.142;7.768;2022-11-23T04:39:07;8.80;77.80
5868;DHT22;2960;49.142;7.768;2022-11-23T04:41:34;8.90;77.80
5868;DHT22;2960;49.142;7.768;2022-11-23T04:44:02;8.90;77.80
5868;DHT22;2960;49.142;7.768;2022-11-23T04:46:29;8.80;78.40
5868;DHT22;2960;49.142;7.768;2022-11-23T04:48:56;8.80;77.70
5868;DHT22;2960;49.142;7.768;2022-11-23T04:51:23;8.90;77.70
5868;DHT22;2960;49.142;7.768;2022-11-23T04:53:53;8.90;77.60
5868;DHT22;2960;49.142;7.768;2022-11-23T04:56:20;8.90;78.40
5868;DHT22;2960;49.142;7.768;2022-11-23T04:58:47;8.90;77.50
5868;DHT22;2960;49.142;7.768;2022-11-23T05:01:16;8.90;77.50
5868;DHT22;2960;49.142;7.768;2022-11-23T05:03:43;8.90;77.40
5868;DHT22;2960;49.142;7.768;2022-11-23T05:06:13;8.90;78.10
5868;DHT22;2960;49.142;7.768;2022-11-23T05:08:41;9.00;77.40
5868;DHT22;2960;49.142;7.768;2022-11-23T05:11:08;8.90;77.40
5868;DHT22;2960;49.142;7.768;2022-11-23T05:13:36;8.90;77.30
5868;DHT22;2960;49.142;7.768;2022-11-23T05:16:03;8.90;77.50
5868;DHT22;2960;49.142;7.768;2022-11-23T05:18:31;8.90;77.50
5868;DHT22;2960;49.142;7.768;2022-11-23T05:20:58;8.90;77.50
5868;DHT22;2960;49.142;7.768;2022-11-23T05:23:25;8.90;77.60
5868;DHT22;2960;49.142;7.768;2022-11-23T05:25:53;8.80;77.60
5868;DHT22;2960;49.142;7.768;2022-11-23T05:28:21;8.80;77.70
5868;DHT22;2960;49.142;7.768;2022-11-23T05:30:48;8.80;77.80
5868;DHT22;2960;49.142;7.768;2022-11-23T05:33:15;8.80;77.90
5868;DHT22;2960;49.142;7.768;2022-11-23T05:35:43;8.80;78.00
5868;DHT22;2960;49.142;7.768;2022-11-23T05:38:10;8.80;78.00
5868;DHT22;2960;49.142;7.768;2022-11-23T05:40:37;8.70;78.00
5868;DHT22;2960;49.142;7.768;2022-11-23T05:43:04;8.70;78.10
5868;DHT22;2960;49.142;7.768;2022-11-23T05:45:31;8.70;78.10
5868;DHT22;2960;49.142;7.768;2022-11-23T05:47:58;8.60;78.00
5868;DHT22;2960;49.142;7.768;2022-11-23T05:50:26;8.60;78.10
5868;DHT22;2960;49.142;7.768;2022-11-23T05:52:56;8.60;78.10
5868;DHT22;2960;49.142;7.768;2022-11-23T05:55:24;8.60;78.30
5868;DHT22;2960;49.142;7.768;2022-11-23T05:57:51;8.50;78.30
5868;DHT22;2960;49.142;7.768;2022-11-23T06:00:19;8.50;78.30
5868;DHT22;2960;49.142;7.768;2022-11-23T06:02:46;8.50;78.30
5868;DHT22;2960;49.142;7.768;2022-11-23T06:05:13;8.40;78.20
5868;DHT22;2960;49.142;7.768;2022-11-23T06:07:40;8.40;78.20
5868;DHT22;2960;49.142;7.768;2022-11-23T06:10:10;8.40;79.10
5868;DHT22;2960;49.142;7.768;2022-11-23T06:12:38;8.30;78.20
5868;DHT22;2960;49.142;7.768;2022-11-23T06:15:06;8.30;78.20
5868;DHT22;2960;49.142;7.768;2022-11-23T06:17:35;8.30;78.30
5868;DHT22;2960;49.142;7.768;2022-11-23T06:20:03;8.20;78.20
5868;DHT22;2960;49.142;7.768;2022-11-23T06:22:31;8.20;78.20
5868;DHT22;2960;49.142;7.768;2022-11-23T06:24:58;8.10;78.00
5868;DHT22;2960;49.142;7.768;2022-11-23T06:27:29;8.10;78.10
5868;DHT22;2960;49.142;7.768;2022-11-23T06:29:56;8.10;78.20
5868;DHT22;2960;49.142;7.768;2022-11-23T06:32:23;8.00;78.00
5868;DHT22;2960;49.142;7.768;2022-11-23T06:34:50;8.00;78.00
5868;DHT22;2960;49.142;7.768;2022-11-23T06:37:17;7.90;77.90
5868;DHT22;2960;49.142;7.768;2022-11-23T06:39:44;7.90;77.90
5868;DHT22;2960;49.142;7.768;2022-11-23T06:42:11;7.90;77.80
5868;DHT22;2960;49.142;7.768;2022-11-23T06:44:40;7.80;77.70
5868;DHT22;2960;49.142;7.768;2022-11-23T06:47:07;7.80;77.70
5868;DHT22;2960;49.142;7.768;2022-11-23T06:49:34;7.80;77.70
5868;DHT22;2960;49.142;7.768;2022-11-23T06:52:01;7.70;77.60
5868;DHT22;2960;49.142;7.768;2022-11-23T06:54:28;7.70;78.40
5868;DHT22;2960;49.142;7.768;2022-11-23T06:56:55;7.60;78.30
5868;DHT22;2960;49.142;7.768;2022-11-23T06:59:22;7.60;77.60
5868;DHT22;2960;49.142;7.768;2022-11-23T07:01:53;7.60;77.60
5868;DHT22;2960;49.142;7.768;2022-11-23T07:04:20;7.50;77.50
5868;DHT22;2960;49.142;7.768;2022-11-23T07:06:47;7.50;77.50
5868;DHT22;2960;49.142;7.768;2022-11-23T07:09:14;7.50;77.40
5868;DHT22;2960;49.142;7.768;2022-11-23T07:11:41;7.50;77.40
5868;DHT22;2960;49.142;7.768;2022-11-23T07:14:08;7.50;77.40
5868;DHT22;2960;49.142;7.768;2022-11-23T07:16:35;7.40;77.20
5868;DHT22;2960;49.142;7.768;2022-11-23T07:19:03;7.40;77.30
5868;DHT22;2960;49.142;7.768;2022-11-23T07:21:30;7.40;77.30
5868;DHT22;2960;49.142;7.768;2022-11-23T07:23:57;7.40;77.40
5868;DHT22;2960;49.142;7.768;2022-11-23T07:26:24;7.40;77.30
5868;DHT22;2960;49.142;7.768;2022-11-23T07:28:52;7.40;77.30
5868;DHT22;2960;49.142;7.768;2022-11-23T07:31:19;7.40;77.30
5868;DHT22;2960;49.142;7.768;2022-11-23T07:33:46;7.30;77.20
5868;DHT22;2960;49.142;7.768;2022-11-23T07:36:15;7.30;77.30
5868;DHT22;2960;49.142;7.768;2022-11-23T07:38:42;7.30;77.40
5868;DHT22;2960;49.142;7.768;2022-11-23T07:41:09;7.30;77.40
5868;DHT22;2960;49.142;7.768;2022-11-23T07:43:36;7.30;77.40
5868;DHT22;2960;49.142;7.768;2022-11-23T07:46:03;7.30;77.30
5868;DHT22;2960;49.142;7.768;2022-11-23T07:48:32;7.30;77.40
5868;DHT22;2960;49.142;7.768;2022-11-23T07:50:59;7.30;77.40
5868;DHT22;2960;49.142;7.768;2022-11-23T07:53:28;7.30;77.40
5868;DHT22;2960;49.142;7.768;2022-11-23T07:55:55;7.30;77.40
5868;DHT22;2960;49.142;7.768;2022-11-23T07:58:23;7.30;77.40
5868;DHT22;2960;49.142;7.768;2022-11-23T08:00:50;7.30;77.60
5868;DHT22;2960;49.142;7.768;2022-11-23T08:03:17;7.30;78.40
5868;DHT22;2960;49.142;7.768;2022-11-23T08:05:45;7.40;77.60
5868;DHT22;2960;49.142;7.768;2022-11-23T08:08:12;7.40;78.30
5868;DHT22;2960;49.142;7.768;2022-11-23T08:10:43;7.40;77.50
5868;DHT22;2960;49.142;7.768;2022-11-23T08:13:10;7.40;77.50
5868;DHT22;2960;49.142;7.768;2022-11-23T08:15:37;7.50;77.60
5868;DHT22;2960;49.142;7.768;2022-11-23T08:18:04;7.50;77.60
5868;DHT22;2960;49.142;7.768;2022-11-23T08:20:32;7.50;77.60
5868;DHT22;2960;49.142;7.768;2022-11-23T08:22:59;7.50;77.60
5868;DHT22;2960;49.142;7.768;2022-11-23T08:25:27;7.60;78.40
5868;DHT22;2960;49.142;7.768;2022-11-23T08:27:57;7.60;77.90
5868;DHT22;2960;49.142;7.768;2022-11-23T08:30:25;7.70;78.60
5868;DHT22;2960;49.142;7.768;2022-11-23T08:32:53;7.80;77.90
5868;DHT22;2960;49.142;7.768;2022-11-23T08:35:21;7.90;77.90
5868;DHT22;2960;49.142;7.768;2022-11-23T08:37:48;8.00;78.00
5868;DHT22;2960;49.142;7.768;2022-11-23T08:40:15;8.10;78.20
5868;DHT22;2960;49.142;7.768;2022-11-23T08:42:42;8.30;78.40
5868;DHT22;2960;49.142;7.768;2022-11-23T08:45:11;8.50;78.50
5868;DHT22;2960;49.142;7.768;2022-11-23T08:47:38;8.70;78.40
5868;DHT22;2960;49.142;7.768;2022-11-23T08:50:06;9.00;78.40
5868;DHT22;2960;49.142;7.768;2022-11-23T08:52:33;9.30;78.40
5868;DHT22;2960;49.142;7.768;2022-11-23T08:55:00;9.60;78.30
5868;DHT22;2960;49.142;7.768;2022-11-23T08:57:27;9.90;78.10
5868;DHT22;2960;49.142;7.768;2022-11-23T08:59:55;10.20;76.90
5868;DHT22;2960;49.142;7.768;2022-11-23T09:02:23;10.40;76.60
5868;DHT22;2960;49.142;7.768;2022-11-23T09:04:50;10.70;76.50
5868;DHT22;2960;49.142;7.768;2022-11-23T09:07:17;11.10;76.60
5868;DHT22;2960;49.142;7.768;2022-11-23T09:09:44;11.50;76.50
5868;DHT22;2960;49.142;7.768;2022-11-23T09:12:11;11.90;76.20
5868;DHT22;2960;49.142;7.768;2022-11-23T09:14:38;12.30;76.60
5868;DHT22;2960;49.142;7.768;2022-11-23T09:17:05;12.70;75.50
5868;DHT22;2960;49.142;7.768;2022-11-23T09:19:35;13.20;75.00
5868;DHT22;2960;49.142;7.768;2022-11-23T09:22:02;13.70;74.50
5868;DHT22;2960;49.142;7.768;2022-11-23T09:24:29;14.10;73.90
5868;DHT22;2960;49.142;7.768;2022-11-23T09:26:56;14.40;73.50
5868;DHT22;2960;49.142;7.768;2022-11-23T09:29:23;14.90;73.20
5868;DHT22;2960;49.142;7.768;2022-11-23T09:31:51;15.20;72.60
5868;DHT22;2960;49.142;7.768;2022-11-23T09:34:18;15.60;71.90
5868;DHT22;2960;49.142;7.768;2022-11-23T09:36:47;15.90;71.20
5868;DHT22;2960;49.142;7.768;2022-11-23T09:39:14;16.20;70.40
5868;DHT22;2960;49.142;7.768;2022-11-23T09:41:51;16.40;69.50
5868;DHT22;2960;49.142;7.768;2022-11-23T09:44:41;16.60;69.00
5868;DHT22;2960;49.142;7.768;2022-11-23T09:47:30;16.90;68.30
5868;DHT22;2960;49.142;7.768;2022-11-23T09:50:11;17.10;68.00
5868;DHT22;2960;49.142;7.768;2022-11-23T09:52:46;17.50;67.60
5868;DHT22;2960;49.142;7.768;2022-11-23T09:55:20;17.90;66.90
5868;DHT22;2960;49.142;7.768;2022-11-23T09:57:55;18.30;65.80
5868;DHT22;2960;49.142;7.768;2022-11-23T10:00:26;18.50;64.40
5868;DHT22;2960;49.142;7.768;2022-11-23T10:02:55;18.70;63.70
5868;DHT22;2960;49.142;7.768;2022-11-23T10:05:25;18.90;63.50
5868;DHT22;2960;49.142;7.768;2022-11-23T10:08:05;19.20;62.60
5868;DHT22;2960;49.142;7.768;2022-11-23T10:10:40;19.40;61.60
5868;DHT22;2960;49.142;7.768;2022-11-23T10:13:27;19.50;61.20
5868;DHT22;2960;49.142;7.768;2022-11-23T10:16:11;19.90;61.10
5868;DHT22;2960;49.142;7.768;2022-11-23T10:18:54;20.10;60.10
5868;DHT22;2960;49.142;7.768;2022-11-23T10:21:33;20.40;59.20
5868;DHT22;2960;49.142;7.768;2022-11-23T10:24:15;20.50;58.80
5868;DHT22;2960;49.142;7.768;2022-11-23T10:26:47;20.70;58.30
5868;DHT22;2960;49.142;7.768;2022-11-23T10:29:19;20.90;57.90
5868;DHT22;2960;49.142;7.768;2022-11-23T10:31:53;21.20;57.70
5868;DHT22;2960;49.142;7.768;2022-11-23T10:34:25;21.50;57.00
5868;DHT22;2960;49.142;7.768;2022-11-23T10:37:17;21.60;56.60
5868;DHT22;2960;49.142;7.768;2022-11-23T10:39:45;21.90;56.20
5868;DHT22;2960;49.142;7.768;2022-11-23T10:42:20;22.10;55.70
5868;DHT22;2960;49.142;7.768;2022-11-23T10:44:51;22.40;55.20
5868;DHT22;2960;49.142;7.768;2022-11-23T10:47:36;22.60;54.90
5868;DHT22;2960;49.142;7.768;2022-11-23T10:50:21;22.80;54.50
5868;DHT22;2960;49.142;7.768;2022-11-23T10:52:51;23.00;53.90
5868;DHT22;2960;49.142;7.768;2022-11-23T10:55:25;23.20;53.60
5868;DHT22;2960;49.142;7.768;2022-11-23T10:57:54;23.50;53.20
5868;DHT22;2960;49.142;7.768;2022-11-23T11:00:23;23.60;52.60
5868;DHT22;2960;49.142;7.768;2022-11-23T11:02:53;23.80;52.20
5868;DHT22;2960;49.142;7.768;2022-11-23T11:05:30;24.00;51.80
5868;DHT22;2960;49.142;7.768;2022-11-23T11:08:00;24.10;51.20
5868;DHT22;2960;49.142;7.768;2022-11-23T11:10:36;24.20;51.00
5868;DHT22;2960;49.142;7.768;2022-11-23T11:13:20;24.30;50.60
5868;DHT22;2960;49.142;7.768;2022-11-23T11:15:57;24.40;50.20
5868;DHT22;2960;49.142;7.768;2022-11-23T11:18:28;24.40;49.90
5868;DHT22;2960;49.142;7.768;2022-11-23T11:20:59;24.50;50.00
5868;DHT22;2960;49.142;7.768;2022-11-23T11:23:28;24.50;48.80
5868;DHT22;2960;49.142;7.768;2022-11-23T11:26:19;24.50;48.40
5868;DHT22;2960;49.142;7.768;2022-11-23T11:28:50;24.50;48.30
5868;DHT22;2960;49.142;7.768;2022-11-23T11:31:42;24.50;48.70
5868;DHT22;2960;49.142;7.768;2022-11-23T11:34:19;24.60;47.70
5868;DHT22;2960;49.142;7.768;2022-11-23T11:36:55;24.60;47.20
5868;DHT22;2960;49.142;7.768;2022-11-23T11:39:31;24.60;46.80
5868;DHT22;2960;49.142;7.768;2022-11-23T11:42:04;24.60;46.50
5868;DHT22;2960;49.142;7.768;2022-11-23T11:44:36;24.60;45.90
5868;DHT22;2960;49.142;7.768;2022-11-23T11:47:11;24.40;45.20
5868;DHT22;2960;49.142;7.768;2022-11-23T11:49:46;24.20;44.40
5868;DHT22;2960;49.142;7.768;2022-11-23T11:52:16;24.00;44.70
5868;DHT22;2960;49.142;7.768;2022-11-23T11:54:49;23.90;44.60
5868;DHT22;2960;49.142;7.768;2022-11-23T11:57:24;23.80;44.10
5868;DHT22;2960;49.142;7.768;2022-11-23T11:59:55;23.70;43.90
5868;DHT22;2960;49.142;7.768;2022-11-23T12:02:25;23.60;43.40
5868;DHT22;2960;49.142;7.768;2022-11-23T12:05:02;23.30;42.70
5868;DHT22;2960;49.142;7.768;2022-11-23T12:07:35;23.00;42.80
5868;DHT22;2960;49.142;7.768;2022-11-23T12:10:09;22.80;42.70
5868;DHT22;2960;49.142;7.768;2022-11-23T12:12:40;22.70;43.30
5868;DHT22;2960;49.142;7.768;2022-11-23T12:15:16;22.70;42.30
5868;DHT22;2960;49.142;7.768;2022-11-23T12:18:11;22.50;42.60
5868;DHT22;2960;49.142;7.768;2022-11-23T12:20:53;22.40;42.30
5868;DHT22;2960;49.142;7.768;2022-11-23T12:23:35;22.20;42.20
5868;DHT22;2960;49.142;7.768;2022-11-23T12:26:18;22.30;42.20
5868;DHT22;2960;49.142;7.768;2022-11-23T12:29:13;22.30;42.20
5868;DHT22;2960;49.142;7.768;2022-11-23T12:31:52;22.40;42.30
5868;DHT22;2960;49.142;7.768;2022-11-23T12:34:43;22.40;42.10
5868;DHT22;2960;49.142;7.768;2022-11-23T12:37:38;22.50;42.40
5868;DHT22;2960;49.142;7.768;2022-11-23T12:43:18;22.80;42.10
5868;DHT22;2960;49.142;7.768;2022-11-23T12:46:10;23.00;42.30
5868;DHT22;2960;49.142;7.768;2022-11-23T12:48:57;23.20;42.10
5868;DHT22;2960;49.142;7.768;2022-11-23T12:51:35;23.30;41.70
5868;DHT22;2960;49.142;7.768;2022-11-23T12:54:21;23.30;41.40
5868;DHT22;2960;49.142;7.768;2022-11-23T12:57:03;23.40;41.50
5868;DHT22;2960;49.142;7.768;2022-11-23T12:59:41;23.60;41.60
5868;DHT22;2960;49.142;7.768;2022-11-23T13:02:22;23.70;41.40
5868;DHT22;2960;49.142;7.768;2022-11-23T13:12:13;23.70;40.50
5868;DHT22;2960;49.142;7.768;2022-11-23T13:14:54;23.70;40.50
5868;DHT22;2960;49.142;7.768;2022-11-23T13:17:31;23.60;40.00
5868;DHT22;2960;49.142;7.768;2022-11-23T13:23:34;23.20;39.90
5868;DHT22;2960;49.142;7.768;2022-11-23T13:26:12;22.90;39.40
5868;DHT22;2960;49.142;7.768;2022-11-23T13:28:40;22.70;39.60
5868;DHT22;2960;49.142;7.768;2022-11-23T13:31:25;22.50;39.70
5868;DHT22;2960;49.142;7.768;2022-11-23T13:33:57;22.30;39.20
5868;DHT22;2960;49.142;7.768;2022-11-23T13:36:39;21.90;39.30
5868;DHT22;2960;49.142;7.768;2022-11-23T13:42:33;21.30;39.80
5868;DHT22;2960;49.142;7.768;2022-11-23T13:45:28;20.80;39.90
5868;DHT22;2960;49.142;7.768;2022-11-23T13:48:16;20.40;40.00
5868;DHT22;2960;49.142;7.768;2022-11-23T13:50:59;20.10;40.20
5868;DHT22;2960;49.142;7.768;2022-11-23T13:53:29;19.80;40.30
5868;DHT22;2960;49.142;7.768;2022-11-23T13:59:29;19.20;40.70
5868;DHT22;2960;49.142;7.768;2022-11-23T14:08:04;18.20;41.80
5868;DHT22;2960;49.142;7.768;2022-11-23T14:10:32;17.90;42.30
5868;DHT22;2960;49.142;7.768;2022-11-23T14:13:01;17.70;42.30
5868;DHT22;2960;49.142;7.768;2022-11-23T14:15:36;17.50;42.40
5868;DHT22;2960;49.142;7.768;2022-11-23T14:18:17;17.30;42.50
5868;DHT22;2960;49.142;7.768;2022-11-23T14:21:12;17.20;42.70
5868;DHT22;2960;49.142;7.768;2022-11-23T14:24:11;17.00;42.70
5868;DHT22;2960;49.142;7.768;2022-11-23T14:26:56;16.90;42.80
5868;DHT22;2960;49.142;7.768;2022-11-23T14:29:41;16.70;42.80
5868;DHT22;2960;49.142;7.768;2022-11-23T14:32:27;16.50;42.80
5868;DHT22;2960;49.142;7.768;2022-11-23T14:35:15;16.40;43.00
5868;DHT22;2960;49.142;7.768;2022-11-23T14:38:08;16.30;43.10
5868;DHT22;2960;49.142;7.768;2022-11-23T14:40:55;16.10;43.10
5868;DHT22;2960;49.142;7.768;2022-11-23T14:43:27;16.00;43.30
5868;DHT22;2960;49.142;7.768;2022-11-23T14:46:00;15.90;43.60
5868;DHT22;2960;49.142;7.768;2022-11-23T14:48:30;15.80;43.70
5868;DHT22;2960;49.142;7.768;2022-11-23T14:51:00;15.70;43.70
5868;DHT22;2960;49.142;7.768;2022-11-23T14:53:30;15.60;43.90
5868;DHT22;2960;49.142;7.768;2022-11-23T14:56:00;15.50;44.00
5868;DHT22;2960;49.142;7.768;2022-11-23T14:58:30;15.40;44.70
5868;DHT22;2960;49.142;7.768;2022-11-23T15:00:59;15.30;44.20
5868;DHT22;2960;49.142;7.768;2022-11-23T15:03:28;15.20;44.30
5868;DHT22;2960;49.142;7.768;2022-11-23T15:06:05;15.10;44.60
5868;DHT22;2960;49.142;7.768;2022-11-23T15:08:42;15.00;45.00
5868;DHT22;2960;49.142;7.768;2022-11-23T15:11:15;14.90;45.30
5868;DHT22;2960;49.142;7.768;2022-11-23T15:13:46;14.70;45.70
5868;DHT22;2960;49.142;7.768;2022-11-23T15:16:16;14.60;46.20
5868;DHT22;2960;49.142;7.768;2022-11-23T15:18:45;14.40;47.10
5868;DHT22;2960;49.142;7.768;2022-11-23T15:21:17;14.30;46.90
5868;DHT22;2960;49.142;7.768;2022-11-23T15:23:47;14.20;47.30
5868;DHT22;2960;49.142;7.768;2022-11-23T15:26:19;14.00;47.60
5868;DHT22;2960;49.142;7.768;2022-11-23T15:28:48;13.90;48.00
5868;DHT22;2960;49.142;7.768;2022-11-23T15:31:24;13.80;48.20
5868;DHT22;2960;49.142;7.768;2022-11-23T15:33:56;13.70;49.40
5868;DHT22;2960;49.142;7.768;2022-11-23T15:36:26;13.60;49.00
5868;DHT22;2960;49.142;7.768;2022-11-23T15:38:56;13.50;49.10
5868;DHT22;2960;49.142;7.768;2022-11-23T15:41:26;13.40;49.30
5868;DHT22;2960;49.142;7.768;2022-11-23T15:43:55;13.40;49.60
5868;DHT22;2960;49.142;7.768;2022-11-23T15:46:27;13.30;49.70
5868;DHT22;2960;49.142;7.768;2022-11-23T15:49:01;13.30;49.90
5868;DHT22;2960;49.142;7.768;2022-11-23T15:51:31;13.20;50.10
5868;DHT22;2960;49.142;7.768;2022-11-23T15:54:03;13.10;50.20
5868;DHT22;2960;49.142;7.768;2022-11-23T15:56:33;13.10;50.40
5868;DHT22;2960;49.142;7.768;2022-11-23T15:59:04;13.00;50.40
5868;DHT22;2960;49.142;7.768;2022-11-23T16:01:48;13.00;50.30
5868;DHT22;2960;49.142;7.768;2022-11-23T16:04:24;13.00;50.40
5868;DHT22;2960;49.142;7.768;2022-11-23T16:06:53;12.90;50.50
5868;DHT22;2960;49.142;7.768;2022-11-23T16:09:47;12.80;50.60
5868;DHT22;2960;49.142;7.768;2022-11-23T16:12:22;12.90;50.80
5868;DHT22;2960;49.142;7.768;2022-11-23T16:14:52;12.70;51.10
5868;DHT22;2960;49.142;7.768;2022-11-23T16:17:21;12.60;51.10
5868;DHT22;2960;49.142;7.768;2022-11-23T16:19:50;12.60;51.30
5868;DHT22;2960;49.142;7.768;2022-11-23T16:22:23;12.60;51.40
5868;DHT22;2960;49.142;7.768;2022-11-23T16:25:02;12.50;51.40
5868;DHT22;2960;49.142;7.768;2022-11-23T16:27:33;12.40;51.60
5868;DHT22;2960;49.142;7.768;2022-11-23T16:30:01;12.40;51.80
5868;DHT22;2960;49.142;7.768;2022-11-23T16:32:30;12.30;51.80
5868;DHT22;2960;49.142;7.768;2022-11-23T16:35:00;12.30;52.00
5868;DHT22;2960;49.142;7.768;2022-11-23T16:37:40;12.20;52.10
5868;DHT22;2960;49.142;7.768;2022-11-23T16:40:08;12.20;52.30
5868;DHT22;2960;49.142;7.768;2022-11-23T16:42:37;12.10;52.40
5868;DHT22;2960;49.142;7.768;2022-11-23T16:45:05;12.10;52.50
5868;DHT22;2960;49.142;7.768;2022-11-23T16:47:33;12.00;52.70
5868;DHT22;2960;49.142;7.768;2022-11-23T16:50:00;12.00;53.40
5868;DHT22;2960;49.142;7.768;2022-11-23T16:52:29;12.00;53.00
5868;DHT22;2960;49.142;7.768;2022-11-23T16:54:56;11.90;53.80
5868;DHT22;2960;49.142;7.768;2022-11-23T16:57:26;11.90;53.50
5868;DHT22;2960;49.142;7.768;2022-11-23T16:59:56;11.90;53.60
5868;DHT22;2960;49.142;7.768;2022-11-23T17:02:27;11.80;53.70